Time;durP1;ratioP1;P1;durP2;ratioP2;P2;SDS_P1;SDS_P2;PMS_P1;PMS_P2;Temp;Humidity;BMP_temperature;BMP_pressure;BME280_temperature;BME280_humidity;BME280_pressure;Samples;Min_cycle;Max_cycle;Signal;HPM_P1;HPM_P2
2022/12/13 00:02:17;;;;;;;1.60;1.50;;;;;;;;;;5054584;28;20079;-89
2022/12/13 00:04:44;;;;;;;1.40;1.35;;;;;;;;;;5054158;28;20597;-89
2022/12/13 00:07:10;;;;;;;2.03;1.92;;;;;;;;;;5054266;28;20045;-89
2022/12/13 00:09:37;;;;;;;0.60;0.60;;;;;;;;;;5054909;28;20476;-90
2022/12/13 00:12:03;;;;;;;2.08;1.88;;;;;;;;;;5054926;28;20061;-90
2022/12/13 00:14:31;;;;;;;3.45;3.25;;;;;;;;;;5054172;28;20122;-90
2022/12/13 00:16:58;;;;;;;1.95;1.85;;;;;;;;;;5054430;28;20456;-89
2022/12/13 00:19:24;;;;;;;2.55;2.35;;;;;;;;;;5054397;28;20118;-90
2022/12/13 00:21:51;;;;;;;2.05;1.95;;;;;;;;;;5054553;28;20052;-90
2022/12/13 00:24:17;;;;;;;2.72;2.58;;;;;;;;;;5047275;28;20049;-90
2022/12/13 00:26:44;;;;;;;0.95;0.95;;;;;;;;;;5052217;28;20048;-90
2022/12/13 00:29:11;;;;;;;2.78;2.58;;;;;;;;;;5048375;28;20100;-90
2022/12/13 00:31:39;;;;;;;0.98;0.98;;;;;;;;;;5034304;28;20137;-89
2022/12/13 00:34:05;;;;;;;1.70;1.60;;;;;;;;;;5034293;28;20053;-90
2022/12/13 00:36:32;;;;;;;1.10;1.08;;;;;;;;;;5034416;28;20111;-90
2022/12/13 00:39:01;;;;;;;1.77;1.67;;;;;;;;;;5037152;28;20053;-88
2022/12/13 00:41:29;;;;;;;1.13;1.08;;;;;;;;;;5037061;28;20045;-89
2022/12/13 00:43:55;;;;;;;1.13;1.13;;;;;;;;;;5038137;28;20052;-89
2022/12/13 00:46:22;;;;;;;0.77;0.77;;;;;;;;;;5054045;28;20678;-89
2022/12/13 00:48:51;;;;;;;0.60;0.57;;;;;;;;;;5053797;28;20205;-89
2022/12/13 00:51:17;;;;;;;1.08;1.08;;;;;;;;;;5054102;28;20103;-89
2022/12/13 00:53:44;;;;;;;1.85;1.75;;;;;;;;;;5053514;28;20103;-89
2022/12/13 00:56:12;;;;;;;4.22;2.58;;;;;;;;;;5053676;28;20071;-90
2022/12/13 00:58:38;;;;;;;0.93;0.93;;;;;;;;;;5053682;28;20055;-89
2022/12/13 01:01:06;;;;;;;0.85;0.85;;;;;;;;;;5053222;28;20048;-89
2022/12/13 01:03:33;;;;;;;1.33;1.33;;;;;;;;;;5052538;28;20114;-90
2022/12/13 01:06:01;;;;;;;1.42;1.33;;;;;;;;;;5053275;28;20053;-89
2022/12/13 01:08:27;;;;;;;0.63;0.63;;;;;;;;;;5053401;28;20560;-89
2022/12/13 01:10:54;;;;;;;2.33;2.13;;;;;;;;;;5053119;28;20053;-91
2022/12/13 01:13:21;;;;;;;1.45;1.35;;;;;;;;;;5053348;28;20049;-89
2022/12/13 01:15:47;;;;;;;1.40;1.38;;;;;;;;;;5052819;28;20490;-89
2022/12/13 01:18:16;;;;;;;0.68;0.68;;;;;;;;;;5053017;28;20510;-89
2022/12/13 01:20:43;;;;;;;1.80;1.73;;;;;;;;;;5052656;28;20391;-89
2022/12/13 01:23:11;;;;;;;0.90;0.90;;;;;;;;;;5053162;28;20461;-89
2022/12/13 01:25:38;;;;;;;1.02;1.02;;;;;;;;;;5052913;28;20041;-89
2022/12/13 01:28:05;;;;;;;1.27;1.25;;;;;;;;;;5052678;28;20106;-89
2022/12/13 01:30:33;;;;;;;0.98;0.98;;;;;;;;;;5052776;28;20102;-89
2022/12/13 01:33:00;;;;;;;1.48;1.42;;;;;;;;;;5052780;28;20041;-89
2022/12/13 01:35:26;;;;;;;0.75;0.75;;;;;;;;;;5052697;28;20457;-89
2022/12/13 01:37:54;;;;;;;1.33;1.23;;;;;;;;;;5052692;28;20061;-89
2022/12/13 01:40:22;;;;;;;4.57;4.30;;;;;;;;;;5052338;28;20045;-89
2022/12/13 01:42:48;;;;;;;0.75;0.75;;;;;;;;;;5052449;28;20044;-89
2022/12/13 01:45:22;;;;;;;2.13;1.90;;;;;;;;;;5052490;28;20049;-89
2022/12/13 01:47:50;;;;;;;1.48;1.45;;;;;;;;;;5052730;28;20052;-89
2022/12/13 01:50:18;;;;;;;2.65;2.55;;;;;;;;;;5052309;28;20052;-89
2022/12/13 01:52:46;;;;;;;1.35;1.27;;;;;;;;;;5052440;28;20107;-89
2022/12/13 01:55:14;;;;;;;1.88;1.77;;;;;;;;;;5052084;28;20099;-89
2022/12/13 01:57:43;;;;;;;1.90;1.80;;;;;;;;;;5052391;28;20041;-89
2022/12/13 02:00:10;;;;;;;1.60;1.55;;;;;;;;;;5052059;28;20045;-89
2022/12/13 02:02:37;;;;;;;1.75;1.65;;;;;;;;;;5052385;28;20049;-89
2022/12/13 02:05:05;;;;;;;1.77;1.67;;;;;;;;;;5051822;28;20768;-89
2022/12/13 02:07:34;;;;;;;2.63;2.25;;;;;;;;;;5052293;28;20098;-90
2022/12/13 02:10:01;;;;;;;1.08;1.05;;;;;;;;;;5051824;28;20044;-89
2022/12/13 02:12:30;;;;;;;1.23;1.20;;;;;;;;;;5052435;28;20391;-89
2022/12/13 02:14:58;;;;;;;2.08;1.98;;;;;;;;;;5051819;28;20049;-89
2022/12/13 02:17:28;;;;;;;1.17;1.10;;;;;;;;;;5052221;28;20461;-89
2022/12/13 02:20:09;;;;;;;1.52;1.42;;;;;;;;;;5051805;28;20055;-88
2022/12/13 02:22:47;;;;;;;1.85;1.67;;;;;;;;;;5051879;28;20056;-89
2022/12/13 02:25:22;;;;;;;1.70;1.60;;;;;;;;;;5053185;28;20056;-89
2022/12/13 02:27:55;;;;;;;0.93;0.93;;;;;;;;;;5051696;28;20090;-89
2022/12/13 02:30:23;;;;;;;1.73;1.63;;;;;;;;;;5043007;28;20072;-89
2022/12/13 02:33:08;;;;;;;1.40;1.38;;;;;;;;;;5041559;28;20048;-88
2022/12/13 02:35:39;;;;;;;1.08;1.08;;;;;;;;;;5040541;28;20100;-90
2022/12/13 02:38:10;;;;;;;1.17;1.17;;;;;;;;;;5032805;28;20538;-88
2022/12/13 02:40:38;;;;;;;1.30;1.27;;;;;;;;;;5032453;28;20049;-89
2022/12/13 02:43:07;;;;;;;1.60;1.55;;;;;;;;;;5031853;28;20053;-88
2022/12/13 02:45:37;;;;;;;2.13;2.03;;;;;;;;;;5031548;28;20049;-88
2022/12/13 02:48:05;;;;;;;1.17;1.15;;;;;;;;;;5046243;28;20049;-88
2022/12/13 02:50:32;;;;;;;2.05;1.95;;;;;;;;;;5042355;28;20053;-88
2022/12/13 02:53:00;;;;;;;1.13;1.10;;;;;;;;;;5031572;28;20108;-88
2022/12/13 02:55:27;;;;;;;2.25;2.15;;;;;;;;;;5031612;28;20119;-88
2022/12/13 02:57:54;;;;;;;1.35;1.33;;;;;;;;;;5031573;28;20149;-88
2022/12/13 03:00:21;;;;;;;2.05;1.95;;;;;;;;;;5031480;28;20049;-88
2022/12/13 03:03:06;;;;;;;3.63;2.42;;;;;;;;;;5031399;28;20554;-89
2022/12/13 03:08:23;;;;;;;1.48;1.38;;;;;;;;;;5031545;28;20474;-88
2022/12/13 03:10:54;;;;;;;1.35;1.30;;;;;;;;;;5031247;28;20051;-88
2022/12/13 03:13:36;;;;;;;0.70;0.70;;;;;;;;;;5031612;28;20053;-89
2022/12/13 03:16:07;;;;;;;1.85;1.73;;;;;;;;;;5032093;28;20064;-90
2022/12/13 03:18:34;;;;;;;;;;;;;;;;;;5032087;28;20053;-89
2022/12/13 03:21:03;;;;;;;0.70;0.70;;;;;;;;;;5031467;28;20317;-89
2022/12/13 03:23:30;;;;;;;2.05;1.95;;;;;;;;;;5031416;28;20107;-89
2022/12/13 03:25:59;;;;;;;1.83;1.73;;;;;;;;;;5031528;28;20103;-88
2022/12/13 03:28:25;;;;;;;2.38;1.83;;;;;;;;;;5035321;28;20103;-88
2022/12/13 03:30:52;;;;;;;2.42;2.33;;;;;;;;;;5035090;28;20461;-89
2022/12/13 03:33:18;;;;;;;1.35;1.33;;;;;;;;;;5035071;28;20056;-88
2022/12/13 03:35:45;;;;;;;1.17;1.17;;;;;;;;;;5035049;28;20537;-88
2022/12/13 03:38:14;;;;;;;1.42;1.40;;;;;;;;;;5034875;28;20111;-88
2022/12/13 03:40:41;;;;;;;1.75;1.65;;;;;;;;;;5035197;28;20046;-88
2022/12/13 03:43:07;;;;;;;1.80;1.60;;;;;;;;;;5034888;28;20446;-89
2022/12/13 03:45:34;;;;;;;1.13;1.13;;;;;;;;;;5034873;28;20415;-89
2022/12/13 03:48:00;;;;;;;1.40;1.30;;;;;;;;;;5034813;28;20096;-88
2022/12/13 03:50:27;;;;;;;3.47;1.75;;;;;;;;;;5034708;28;20053;-89
2022/12/13 03:55:43;;;;;;;1.02;1.02;;;;;;;;;;5034801;28;20518;-89
2022/12/13 03:58:09;;;;;;;1.88;1.77;;;;;;;;;;5034726;28;20061;-88
2022/12/13 04:00:36;;;;;;;1.25;1.23;;;;;;;;;;5034453;28;20111;-89
2022/12/13 04:03:02;;;;;;;1.42;1.40;;;;;;;;;;5034525;28;20491;-88
2022/12/13 04:05:29;;;;;;;1.05;0.95;;;;;;;;;;5034519;28;20096;-89
2022/12/13 04:07:56;;;;;;;1.05;0.90;;;;;;;;;;5034527;28;20568;-89
2022/12/13 04:10:22;;;;;;;1.30;1.27;;;;;;;;;;5034401;28;20570;-89
2022/12/13 04:15:34;;;;;;;1.48;1.45;;;;;;;;;;5034381;28;20061;-89
2022/12/13 04:18:00;;;;;;;3.25;3.15;;;;;;;;;;5034276;28;20050;-89
2022/12/13 04:20:27;;;;;;;1.48;1.38;;;;;;;;;;5034289;28;20115;-88
2022/12/13 04:22:53;;;;;;;1.73;1.63;;;;;;;;;;5034164;28;20045;-89
2022/12/13 04:25:20;;;;;;;1.70;1.60;;;;;;;;;;5034121;28;20107;-89
2022/12/13 04:27:46;;;;;;;0.98;0.98;;;;;;;;;;5033904;28;20045;-88
2022/12/13 04:30:14;;;;;;;0.93;0.93;;;;;;;;;;5035205;28;20049;-87
2022/12/13 04:32:41;;;;;;;0.52;0.52;;;;;;;;;;5039222;28;20054;-88
2022/12/13 04:35:07;;;;;;;1.15;1.15;;;;;;;;;;5035414;28;20049;-88
2022/12/13 04:37:34;;;;;;;0.40;0.38;;;;;;;;;;5034078;28;20057;-88
2022/12/13 04:40:00;;;;;;;1.98;1.88;;;;;;;;;;5033846;28;20056;-88
2022/12/13 04:42:27;;;;;;;1.50;1.40;;;;;;;;;;5033773;28;20057;-88
2022/12/13 04:44:53;;;;;;;2.63;2.42;;;;;;;;;;5033608;28;20138;-88
2022/12/13 04:47:21;;;;;;;2.83;2.25;;;;;;;;;;5033490;28;20050;-88
2022/12/13 04:49:48;;;;;;;2.35;2.25;;;;;;;;;;5033586;28;20049;-88
2022/12/13 04:52:14;;;;;;;1.08;0.85;;;;;;;;;;5033843;28;20050;-88
2022/12/13 04:54:41;;;;;;;1.35;1.33;;;;;;;;;;5033550;28;20050;-89
2022/12/13 04:57:08;;;;;;;1.20;1.17;;;;;;;;;;5033495;28;20468;-88
2022/12/13 04:59:34;;;;;;;0.95;0.95;;;;;;;;;;5033522;28;20049;-88
2022/12/13 05:02:01;;;;;;;1.55;1.52;;;;;;;;;;5033626;28;20049;-88
2022/12/13 05:04:28;;;;;;;0.60;0.60;;;;;;;;;;5033457;28;20465;-88
2022/12/13 05:06:56;;;;;;;1.25;1.20;;;;;;;;;;5046339;28;20053;-88
2022/12/13 05:09:22;;;;;;;2.00;1.90;;;;;;;;;;5053129;28;20487;-88
2022/12/13 05:11:49;;;;;;;1.05;1.02;;;;;;;;;;5052938;28;20568;-88
2022/12/13 05:14:15;;;;;;;0.55;0.55;;;;;;;;;;5052906;28;20049;-88
2022/12/13 05:16:42;;;;;;;1.27;1.25;;;;;;;;;;5053070;28;20045;-88
2022/12/13 05:19:08;;;;;;;3.25;3.15;;;;;;;;;;5053242;28;20053;-88
2022/12/13 05:21:36;;;;;;;1.63;1.05;;;;;;;;;;5052525;28;20041;-88
2022/12/13 05:24:03;;;;;;;2.13;2.03;;;;;;;;;;5052870;28;20056;-88
2022/12/13 05:26:29;;;;;;;0.95;0.95;;;;;;;;;;5052491;28;20106;-87
2022/12/13 05:28:56;;;;;;;3.85;3.55;;;;;;;;;;5052956;28;20053;-87
2022/12/13 05:31:23;;;;;;;0.70;0.70;;;;;;;;;;5052509;28;20075;-88
2022/12/13 05:33:49;;;;;;;0.65;0.65;;;;;;;;;;5052808;28;20053;-88
2022/12/13 05:36:16;;;;;;;1.95;1.65;;;;;;;;;;5052260;28;20111;-88
2022/12/13 05:38:43;;;;;;;2.20;2.10;;;;;;;;;;5052912;28;20091;-88
2022/12/13 05:41:13;;;;;;;2.13;2.03;;;;;;;;;;5052193;28;20461;-88
2022/12/13 05:43:40;;;;;;;1.52;1.42;;;;;;;;;;5052528;28;20110;-88
2022/12/13 05:46:06;;;;;;;2.38;2.28;;;;;;;;;;5044932;28;20075;-89
2022/12/13 05:48:33;;;;;;;4.20;3.78;;;;;;;;;;5032700;28;20046;-89
2022/12/13 05:50:59;;;;;;;2.85;2.65;;;;;;;;;;5064717;28;20392;-89
2022/12/13 05:53:26;;;;;;;2.00;1.90;;;;;;;;;;5032519;28;20265;-88
2022/12/13 05:55:54;;;;;;;0.70;0.65;;;;;;;;;;5032131;28;20502;-89
2022/12/13 05:58:20;;;;;;;1.20;1.10;;;;;;;;;;5031999;28;20438;-88
2022/12/13 06:00:47;;;;;;;2.90;2.75;;;;;;;;;;5032007;28;20073;-88
2022/12/13 06:03:14;;;;;;;1.25;1.20;;;;;;;;;;5032284;28;20081;-89
2022/12/13 06:05:42;;;;;;;1.40;1.30;;;;;;;;;;5031998;28;20391;-88
2022/12/13 06:08:09;;;;;;;0.85;0.85;;;;;;;;;;5052089;28;20055;-89
2022/12/13 06:10:35;;;;;;;2.10;2.00;;;;;;;;;;5051756;28;20045;-89
2022/12/13 06:13:03;;;;;;;0.77;0.75;;;;;;;;;;5051964;28;20053;-89
2022/12/13 06:15:30;;;;;;;1.40;1.30;;;;;;;;;;5051467;28;20095;-89
2022/12/13 06:17:59;;;;;;;1.92;1.83;;;;;;;;;;5041965;28;20072;-89
2022/12/13 06:20:25;;;;;;;3.17;1.73;;;;;;;;;;5032053;28;20111;-90
2022/12/13 06:22:52;;;;;;;0.85;0.85;;;;;;;;;;5031913;28;20053;-89
2022/12/13 06:25:18;;;;;;;2.20;2.00;;;;;;;;;;5033971;28;20049;-89
2022/12/13 06:27:45;;;;;;;1.02;1.02;;;;;;;;;;5040996;28;20041;-89
2022/12/13 06:30:13;;;;;;;0.68;0.68;;;;;;;;;;5032941;28;20495;-89
2022/12/13 06:32:40;;;;;;;2.17;1.92;;;;;;;;;;5034902;28;20045;-88
2022/12/13 06:35:07;;;;;;;1.67;1.58;;;;;;;;;;5041294;28;20055;-88
2022/12/13 06:37:33;;;;;;;2.88;2.67;;;;;;;;;;5057290;28;20084;-88
2022/12/13 06:39:59;;;;;;;1.98;1.88;;;;;;;;;;5052046;28;20052;-88
2022/12/13 06:42:26;;;;;;;2.75;2.55;;;;;;;;;;5039236;28;20098;-88
2022/12/13 06:44:53;;;;;;;1.67;1.30;;;;;;;;;;5031924;28;20108;-88
2022/12/13 06:47:21;;;;;;;2.53;2.10;;;;;;;;;;5031924;28;20053;-88
2022/12/13 06:49:48;;;;;;;2.85;2.65;;;;;;;;;;5051652;28;20494;-88
2022/12/13 06:52:14;;;;;;;2.08;1.98;;;;;;;;;;5041451;28;20045;-88
2022/12/13 06:54:41;;;;;;;1.92;1.77;;;;;;;;;;5031920;28;20053;-89
2022/12/13 06:57:08;;;;;;;1.35;1.30;;;;;;;;;;5031935;28;20041;-88
2022/12/13 06:59:35;;;;;;;3.63;1.88;;;;;;;;;;5031386;28;20053;-88
2022/12/13 07:02:01;;;;;;;1.15;1.13;;;;;;;;;;5033311;28;20099;-88
2022/12/13 07:04:29;;;;;;;3.75;2.00;;;;;;;;;;5035850;28;20089;-88
2022/12/13 07:06:56;;;;;;;2.03;1.92;;;;;;;;;;5042012;28;20048;-88
2022/12/13 07:09:23;;;;;;;2.10;2.00;;;;;;;;;;5055516;28;20041;-89
2022/12/13 07:11:49;;;;;;;2.53;1.60;;;;;;;;;;5055719;28;20099;-89
2022/12/13 07:14:16;;;;;;;3.42;3.22;;;;;;;;;;5055371;28;20049;-88
2022/12/13 07:16:43;;;;;;;0.65;0.65;;;;;;;;;;5055363;28;20397;-89
2022/12/13 07:19:10;;;;;;;1.25;1.23;;;;;;;;;;5055480;28;20049;-88
2022/12/13 07:21:38;;;;;;;2.33;1.98;;;;;;;;;;5055535;28;20094;-89
2022/12/13 07:24:05;;;;;;;0.88;0.77;;;;;;;;;;5055523;28;20049;-88
2022/12/13 07:26:32;;;;;;;3.85;2.60;;;;;;;;;;5055504;28;20492;-89
2022/12/13 07:28:58;;;;;;;1.60;1.52;;;;;;;;;;5055225;28;20099;-88
2022/12/13 07:31:25;;;;;;;1.67;1.58;;;;;;;;;;5055020;28;20045;-87
2022/12/13 07:33:52;;;;;;;1.48;1.38;;;;;;;;;;5054935;28;20603;-88
2022/12/13 07:36:20;;;;;;;4.00;1.13;;;;;;;;;;5054775;28;20553;-87
2022/12/13 07:38:52;;;;;;;2.65;1.52;;;;;;;;;;5034872;28;20062;-88
2022/12/13 07:41:18;;;;;;;1.80;1.70;;;;;;;;;;5034775;28;20052;-88
2022/12/13 07:43:45;;;;;;;2.00;1.90;;;;;;;;;;5035281;28;20511;-88
2022/12/13 07:46:11;;;;;;;2.47;2.28;;;;;;;;;;5034818;28;20096;-88
2022/12/13 07:48:38;;;;;;;4.63;1.95;;;;;;;;;;5035047;28;20080;-88
2022/12/13 07:51:05;;;;;;;2.33;2.22;;;;;;;;;;5034962;28;20513;-89
2022/12/13 07:53:33;;;;;;;0.88;0.82;;;;;;;;;;5052385;28;20045;-88
2022/12/13 07:56:02;;;;;;;2.53;2.05;;;;;;;;;;5054565;28;20494;-89
2022/12/13 07:58:30;;;;;;;1.50;1.40;;;;;;;;;;5054879;28;20140;-90
2022/12/13 08:00:59;;;;;;;2.05;1.95;;;;;;;;;;5054927;28;20493;-88
2022/12/13 08:03:25;;;;;;;2.70;2.50;;;;;;;;;;5054461;28;20094;-88
2022/12/13 08:05:58;;;;;;;1.95;1.85;;;;;;;;;;5054719;28;20057;-88
2022/12/13 08:08:25;;;;;;;1.23;1.23;;;;;;;;;;5038898;28;20107;-89
2022/12/13 08:10:51;;;;;;;1.55;1.45;;;;;;;;;;5034528;28;20080;-87
2022/12/13 08:13:19;;;;;;;1.80;1.70;;;;;;;;;;5034319;28;20049;-88
2022/12/13 08:15:46;;;;;;;1.65;1.55;;;;;;;;;;5034381;28;20049;-89
2022/12/13 08:18:12;;;;;;;2.35;2.25;;;;;;;;;;5036817;28;20050;-88
2022/12/13 08:20:39;;;;;;;1.35;1.25;;;;;;;;;;5038608;28;20476;-88
2022/12/13 08:23:05;;;;;;;1.38;1.35;;;;;;;;;;5035159;28;20046;-88
2022/12/13 08:25:32;;;;;;;1.08;1.08;;;;;;;;;;5051826;28;20126;-89
2022/12/13 08:27:58;;;;;;;2.53;1.85;;;;;;;;;;5054201;28;20049;-89
2022/12/13 08:30:26;;;;;;;1.02;1.02;;;;;;;;;;5054400;28;20625;-88
2022/12/13 08:32:52;;;;;;;2.83;2.25;;;;;;;;;;5044110;28;20049;-88
2022/12/13 08:35:19;;;;;;;3.17;2.90;;;;;;;;;;5034098;28;20057;-88
2022/12/13 08:37:45;;;;;;;1.50;1.45;;;;;;;;;;5034172;28;20108;-88
2022/12/13 08:40:12;;;;;;;1.73;1.63;;;;;;;;;;5033904;28;20057;-89
2022/12/13 08:42:38;;;;;;;1.85;1.75;;;;;;;;;;5033777;28;20056;-89
2022/12/13 08:45:05;;;;;;;1.40;1.38;;;;;;;;;;5033653;28;20162;-88
2022/12/13 08:47:33;;;;;;;4.28;4.07;;;;;;;;;;5034081;28;20491;-89
2022/12/13 08:50:00;;;;;;;3.88;2.70;;;;;;;;;;5033981;28;20453;-89
2022/12/13 08:52:27;;;;;;;1.77;1.67;;;;;;;;;;5033633;28;20466;-88
2022/12/13 08:54:53;;;;;;;4.25;1.35;;;;;;;;;;5033631;28;20092;-88
2022/12/13 08:57:20;;;;;;;1.40;1.30;;;;;;;;;;5033753;28;20119;-89
2022/12/13 08:59:46;;;;;;;0.88;0.88;;;;;;;;;;5033773;28;20458;-89
2022/12/13 09:02:13;;;;;;;2.00;1.00;;;;;;;;;;5033680;28;20049;-89
2022/12/13 09:04:41;;;;;;;1.02;1.02;;;;;;;;;;5033847;28;20045;-89
2022/12/13 09:07:08;;;;;;;2.00;1.90;;;;;;;;;;5033529;28;20107;-89
2022/12/13 09:09:34;;;;;;;4.75;2.00;;;;;;;;;;5033600;28;20053;-90
2022/12/13 09:12:01;;;;;;;3.05;2.80;;;;;;;;;;5033911;28;20107;-89
2022/12/13 09:14:28;;;;;;;1.77;1.67;;;;;;;;;;5053408;28;20114;-88
2022/12/13 09:16:54;;;;;;;1.83;1.73;;;;;;;;;;5053464;28;20056;-89
2022/12/13 09:19:21;;;;;;;1.90;1.80;;;;;;;;;;5033774;28;20108;-89
2022/12/13 09:21:48;;;;;;;2.42;2.33;;;;;;;;;;5033180;28;20061;-88
2022/12/13 09:24:15;;;;;;;2.58;2.47;;;;;;;;;;5032027;28;20042;-89
2022/12/13 09:26:41;;;;;;;1.83;1.45;;;;;;;;;;5033622;28;20049;-90
2022/12/13 09:29:08;;;;;;;1.38;1.27;;;;;;;;;;5050066;28;20107;-88
2022/12/13 09:31:36;;;;;;;2.80;2.60;;;;;;;;;;5053126;28;20063;-88
2022/12/13 09:34:02;;;;;;;3.92;2.13;;;;;;;;;;5052685;28;20053;-89
2022/12/13 09:36:29;;;;;;;1.70;1.67;;;;;;;;;;5053255;28;20053;-88
2022/12/13 09:38:58;;;;;;;0.57;0.57;;;;;;;;;;5052768;28;20138;-88
2022/12/13 09:41:28;;;;;;;1.55;1.50;;;;;;;;;;5052911;28;20083;-88
2022/12/13 09:43:56;;;;;;;1.73;1.63;;;;;;;;;;5052830;28;20052;-90
2022/12/13 09:46:27;;;;;;;2.15;2.05;;;;;;;;;;5052907;28;20056;-89
2022/12/13 09:48:55;;;;;;;3.55;3.35;;;;;;;;;;5052696;28;20053;-90
2022/12/13 09:51:22;;;;;;;2.38;2.28;;;;;;;;;;5052624;28;20056;-88
2022/12/13 09:53:50;;;;;;;3.83;3.53;;;;;;;;;;5051957;28;20053;-88
2022/12/13 09:56:18;;;;;;;1.10;1.00;;;;;;;;;;5052495;28;20111;-89
2022/12/13 09:58:47;;;;;;;4.07;3.88;;;;;;;;;;5040451;28;20046;-90
2022/12/13 10:01:14;;;;;;;1.15;1.13;;;;;;;;;;5032757;28;20099;-89
2022/12/13 10:03:41;;;;;;;1.15;1.13;;;;;;;;;;5043769;28;20052;-89
2022/12/13 10:06:13;;;;;;;2.50;2.40;;;;;;;;;;5052875;28;20049;-89
2022/12/13 10:08:41;;;;;;;2.60;2.40;;;;;;;;;;5052462;28;20045;-88
2022/12/13 10:11:07;;;;;;;2.42;2.30;;;;;;;;;;5055675;28;20055;-88
2022/12/13 10:13:38;;;;;;;1.60;1.50;;;;;;;;;;5055649;28;20078;-88
2022/12/13 10:16:07;;;;;;;1.85;1.75;;;;;;;;;;5053337;28;20567;-88
2022/12/13 10:18:35;;;;;;;2.20;2.10;;;;;;;;;;5052545;28;20053;-89
2022/12/13 10:21:03;;;;;;;1.67;1.65;;;;;;;;;;5052275;28;20563;-89
2022/12/13 10:23:30;;;;;;;2.00;1.90;;;;;;;;;;5042872;28;20103;-89
2022/12/13 10:25:57;;;;;;;1.17;1.17;;;;;;;;;;5032796;28;20053;-89
2022/12/13 10:28:26;;;;;;;3.05;2.85;;;;;;;;;;5039438;28;20053;-88
2022/12/13 10:30:54;;;;;;;1.50;1.40;;;;;;;;;;5051672;28;20388;-87
2022/12/13 10:33:22;;;;;;;2.35;2.25;;;;;;;;;;5051605;28;20052;-88
2022/12/13 10:36:01;;;;;;;2.55;2.45;;;;;;;;;;5051904;28;20048;-88
2022/12/13 10:38:29;;;;;;;5.20;3.17;;;;;;;;;;5051028;28;20057;-88
2022/12/13 10:40:56;;;;;;;1.98;1.88;;;;;;;;;;5052017;28;20049;-88
2022/12/13 10:43:23;;;;;;;2.35;2.25;;;;;;;;;;5045266;28;20050;-88
2022/12/13 10:45:58;;;;;;;0.90;0.88;;;;;;;;;;5032018;28;20061;-88
2022/12/13 10:48:27;;;;;;;2.42;2.33;;;;;;;;;;5031794;28;20045;-88
2022/12/13 10:50:58;;;;;;;3.35;2.10;;;;;;;;;;5031898;28;20049;-88
2022/12/13 10:53:28;;;;;;;2.33;2.22;;;;;;;;;;5031512;28;20132;-88
2022/12/13 10:55:55;;;;;;;1.27;1.25;;;;;;;;;;5031661;28;20053;-88
2022/12/13 10:58:22;;;;;;;1.83;1.73;;;;;;;;;;5037271;28;20758;-87
2022/12/13 11:00:48;;;;;;;1.90;1.80;;;;;;;;;;5051719;28;20049;-89
2022/12/13 11:03:30;;;;;;;1.48;1.42;;;;;;;;;;5051252;28;20045;-89
2022/12/13 11:06:02;;;;;;;2.28;2.17;;;;;;;;;;5052098;28;20049;-89
2022/12/13 11:08:29;;;;;;;0.82;0.82;;;;;;;;;;5051420;28;20049;-88
2022/12/13 11:10:56;;;;;;;1.52;1.35;;;;;;;;;;5051649;28;20048;-89
2022/12/13 11:13:25;;;;;;;1.75;1.67;;;;;;;;;;5054455;28;20047;-88
2022/12/13 11:15:54;;;;;;;1.63;1.58;;;;;;;;;;5071391;28;20056;-88
2022/12/13 11:18:22;;;;;;;1.15;1.15;;;;;;;;;;5062840;28;20046;-89
2022/12/13 11:20:53;;;;;;;2.58;2.47;;;;;;;;;;5031482;28;20499;-89
2022/12/13 11:23:23;;;;;;;2.97;2.78;;;;;;;;;;5035414;28;20395;-89
2022/12/13 11:25:54;;;;;;;1.88;1.77;;;;;;;;;;5051800;28;20055;-90
2022/12/13 11:28:28;;;;;;;2.20;2.10;;;;;;;;;;5047476;28;20110;-89
2022/12/13 11:31:01;;;;;;;3.75;1.83;;;;;;;;;;5031285;28;20387;-88
2022/12/13 11:33:32;;;;;;;1.77;1.67;;;;;;;;;;5031727;28;20061;-88
2022/12/13 11:36:06;;;;;;;2.58;2.45;;;;;;;;;;5031812;28;20097;-88
2022/12/13 11:38:36;;;;;;;1.80;1.70;;;;;;;;;;5036379;28;20049;-87
2022/12/13 11:41:09;;;;;;;1.45;1.40;;;;;;;;;;5053097;28;20048;-87
2022/12/13 11:43:39;;;;;;;2.42;2.25;;;;;;;;;;5054090;28;20045;-87
2022/12/13 11:46:11;;;;;;;2.13;2.03;;;;;;;;;;5052500;28;20552;-87
2022/12/13 11:48:41;;;;;;;2.30;2.10;;;;;;;;;;5053314;28;20048;-88
2022/12/13 11:51:11;;;;;;;3.50;3.25;;;;;;;;;;5054932;28;20103;-88
2022/12/13 11:53:45;;;;;;;1.67;1.58;;;;;;;;;;5049944;28;20053;-88
2022/12/13 11:56:15;;;;;;;3.30;3.13;;;;;;;;;;5035034;28;20049;-88
2022/12/13 11:58:44;;;;;;;2.33;2.20;;;;;;;;;;5039738;28;20067;-88
2022/12/13 12:01:12;;;;;;;2.88;2.78;;;;;;;;;;5054712;28;20056;-88
2022/12/13 12:03:42;;;;;;;2.10;1.98;;;;;;;;;;5055112;28;20053;-88
2022/12/13 12:06:13;;;;;;;1.88;1.77;;;;;;;;;;5039502;28;20080;-89
2022/12/13 12:08:40;;;;;;;;;;;;;;;;;;5040497;28;20049;-88
2022/12/13 12:11:09;;;;;;;3.25;3.05;;;;;;;;;;5054971;28;19920;-88
2022/12/13 12:13:38;;;;;;;2.65;2.55;;;;;;;;;;5054254;28;20044;-88
2022/12/13 12:16:08;;;;;;;1.90;1.75;;;;;;;;;;5054283;28;20055;-88
2022/12/13 12:18:34;;;;;;;1.77;1.45;;;;;;;;;;5046111;28;20048;-89
2022/12/13 12:21:07;;;;;;;1.98;1.88;;;;;;;;;;5047313;28;20092;-88
2022/12/13 12:23:42;;;;;;;1.63;1.52;;;;;;;;;;5047630;28;20099;-89
2022/12/13 12:26:10;;;;;;;1.75;1.60;;;;;;;;;;5039766;28;20191;-88
2022/12/13 12:28:56;;;;;;;1.50;1.40;;;;;;;;;;5037090;28;20045;-90
2022/12/13 12:31:29;;;;;;;2.08;1.98;;;;;;;;;;5054351;28;20052;-89
2022/12/13 12:34:02;;;;;;;1.65;1.55;;;;;;;;;;5048568;28;20123;-88
2022/12/13 12:36:39;;;;;;;3.08;2.33;;;;;;;;;;5033472;28;20053;-88
2022/12/13 12:39:18;;;;;;;1.92;1.83;;;;;;;;;;5034201;28;20499;-89
2022/12/13 12:41:51;;;;;;;1.10;1.08;;;;;;;;;;5034071;28;20456;-89
2022/12/13 12:44:23;;;;;;;2.05;1.95;;;;;;;;;;5041435;28;20053;-88
2022/12/13 12:46:56;;;;;;;3.63;3.17;;;;;;;;;;5053767;28;20490;-89
2022/12/13 12:49:39;;;;;;;1.38;1.27;;;;;;;;;;5045829;28;20049;-90
2022/12/13 12:52:07;;;;;;;1.30;1.20;;;;;;;;;;5031687;28;20045;-90
2022/12/13 12:54:41;;;;;;;2.40;2.30;;;;;;;;;;5043748;28;20053;-90
2022/12/13 12:57:11;;;;;;;2.47;2.33;;;;;;;;;;5053755;28;20049;-89
2022/12/13 12:59:41;;;;;;;3.88;3.67;;;;;;;;;;5044231;28;20054;-88
2022/12/13 13:02:15;;;;;;;2.33;2.22;;;;;;;;;;5033540;28;20125;-89
2022/12/13 13:04:44;;;;;;;1.60;1.50;;;;;;;;;;5033603;28;20107;-89
2022/12/13 13:07:11;;;;;;;3.03;2.80;;;;;;;;;;5033582;28;20053;-89
2022/12/13 13:09:40;;;;;;;3.88;2.55;;;;;;;;;;5033389;28;20107;-89
2022/12/13 13:12:09;;;;;;;1.90;1.73;;;;;;;;;;5033677;28;20103;-87
2022/12/13 13:14:36;;;;;;;2.33;2.22;;;;;;;;;;5034433;28;20458;-88
2022/12/13 13:17:18;;;;;;;1.75;1.65;;;;;;;;;;5033810;28;20076;-88
2022/12/13 13:19:48;;;;;;;2.35;2.13;;;;;;;;;;5033230;28;20049;-89
2022/12/13 13:22:28;;;;;;;3.65;1.67;;;;;;;;;;5034065;28;20100;-89
2022/12/13 13:25:00;;;;;;;4.05;3.75;;;;;;;;;;5044403;28;20059;-88
2022/12/13 13:27:29;;;;;;;1.80;1.65;;;;;;;;;;5053723;28;20079;-88
2022/12/13 13:30:04;;;;;;;3.30;3.10;;;;;;;;;;5053231;28;20045;-88
2022/12/13 13:32:31;;;;;;;2.58;2.38;;;;;;;;;;5054183;28;20052;-88
2022/12/13 13:35:12;;;;;;;3.22;2.90;;;;;;;;;;5042916;28;20495;-89
2022/12/13 13:37:46;;;;;;;2.58;2.47;;;;;;;;;;5000846;28;20072;-88
2022/12/13 13:40:29;;;;;;;2.17;1.88;;;;;;;;;;5033849;28;20462;-88
2022/12/13 13:43:13;;;;;;;2.45;2.35;;;;;;;;;;5034047;28;20053;-88
2022/12/13 13:45:59;;;;;;;2.35;1.98;;;;;;;;;;5032684;28;20053;-89
2022/12/13 13:48:36;;;;;;;2.65;2.50;;;;;;;;;;5032493;28;20053;-88
2022/12/13 13:51:20;;;;;;;3.20;2.90;;;;;;;;;;5032704;28;20091;-89
2022/12/13 13:54:03;;;;;;;3.78;3.58;;;;;;;;;;5034244;28;20052;-88
2022/12/13 13:56:48;;;;;;;3.20;2.88;;;;;;;;;;5043527;28;20053;-88
2022/12/13 13:59:28;;;;;;;2.55;2.33;;;;;;;;;;5033874;28;20052;-88
2022/12/13 14:02:04;;;;;;;1.33;1.08;;;;;;;;;;5032905;28;20076;-88
2022/12/13 14:04:43;;;;;;;2.92;2.72;;;;;;;;;;5032683;28;20061;-88
2022/12/13 14:07:29;;;;;;;18.38;14.07;;;;;;;;;;5032583;28;20054;-88
2022/12/13 14:10:05;;;;;;;8.50;7.70;;;;;;;;;;5031942;28;20045;-89
2022/12/13 14:12:52;;;;;;;3.22;2.75;;;;;;;;;;5032707;28;20049;-88
2022/12/13 14:15:37;;;;;;;2.67;2.58;;;;;;;;;;5028052;28;20050;-89
2022/12/13 14:18:24;;;;;;;2.70;2.60;;;;;;;;;;5032750;28;20059;-87
2022/12/13 14:21:08;;;;;;;3.30;3.17;;;;;;;;;;5031743;28;20050;-88
2022/12/13 14:23:47;;;;;;;2.22;2.05;;;;;;;;;;5047026;28;20118;-87
2022/12/13 14:26:22;;;;;;;3.65;2.38;;;;;;;;;;5034100;28;20060;-88
2022/12/13 14:28:50;;;;;;;3.63;3.33;;;;;;;;;;5031905;28;20458;-88
2022/12/13 14:31:18;;;;;;;1.80;1.70;;;;;;;;;;5037179;28;20057;-88
2022/12/13 14:33:46;;;;;;;2.80;2.70;;;;;;;;;;5031732;28;20053;-87
2022/12/13 14:36:15;;;;;;;1.70;1.60;;;;;;;;;;5032145;28;20093;-87
2022/12/13 14:38:41;;;;;;;2.42;2.33;;;;;;;;;;5031784;28;20487;-87
2022/12/13 14:41:15;;;;;;;2.00;1.90;;;;;;;;;;5031785;28;20058;-87
2022/12/13 14:43:41;;;;;;;3.25;2.95;;;;;;;;;;5031181;28;20670;-89
2022/12/13 14:46:08;;;;;;;0.98;0.98;;;;;;;;;;5071672;28;20678;-88
2022/12/13 14:48:36;;;;;;;2.20;1.98;;;;;;;;;;5052328;28;20079;-88
2022/12/13 14:51:04;;;;;;;1.92;1.83;;;;;;;;;;5051657;28;20044;-88
2022/12/13 14:53:36;;;;;;;1.75;1.65;;;;;;;;;;5051167;28;20041;-87
2022/12/13 14:56:04;;;;;;;2.25;2.15;;;;;;;;;;5036744;28;20045;-89
2022/12/13 14:58:30;;;;;;;1.85;1.75;;;;;;;;;;5032055;28;20527;-89
2022/12/13 15:00:57;;;;;;;1.10;1.05;;;;;;;;;;5032780;28;20128;-92
2022/12/13 15:03:24;;;;;;;1.70;1.60;;;;;;;;;;5033679;28;20049;-88